sensor_id;sensor_type;location;lat;lon;timestamp;P1;durP1;ratioP1;P2;durP2;ratioP2
73841;SDS011;62184;52.006;5.924;2022-12-07T00:00:16;41.53;;;15.48;;
73841;SDS011;62184;52.006;5.924;2022-12-07T00:02:44;43.30;;;15.20;;
73841;SDS011;62184;52.006;5.924;2022-12-07T00:05:10;37.83;;;14.70;;
73841;SDS011;62184;52.006;5.924;2022-12-07T00:07:37;41.90;;;15.13;;
73841;SDS011;62184;52.006;5.924;2022-12-07T00:10:04;38.53;;;13.83;;
73841;SDS011;62184;52.006;5.924;2022-12-07T00:12:32;44.17;;;15.85;;
73841;SDS011;62184;52.006;5.924;2022-12-07T00:15:01;46.78;;;16.02;;
73841;SDS011;62184;52.006;5.924;2022-12-07T00:17:28;42.67;;;16.10;;
73841;SDS011;62184;52.006;5.924;2022-12-07T00:19:55;46.10;;;16.10;;
73841;SDS011;62184;52.006;5.924;2022-12-07T00:22:21;46.15;;;16.50;;
73841;SDS011;62184;52.006;5.924;2022-12-07T00:24:48;42.85;;;16.00;;
73841;SDS011;62184;52.006;5.924;2022-12-07T00:27:14;48.55;;;16.92;;
73841;SDS011;62184;52.006;5.924;2022-12-07T00:29:40;49.70;;;17.10;;
73841;SDS011;62184;52.006;5.924;2022-12-07T00:32:09;48.53;;;17.30;;
73841;SDS011;62184;52.006;5.924;2022-12-07T00:34:36;46.67;;;17.02;;
73841;SDS011;62184;52.006;5.924;2022-12-07T00:37:03;50.17;;;17.80;;
73841;SDS011;62184;52.006;5.924;2022-12-07T00:39:29;46.83;;;16.85;;
73841;SDS011;62184;52.006;5.924;2022-12-07T00:41:56;45.50;;;16.70;;
73841;SDS011;62184;52.006;5.924;2022-12-07T00:44:22;44.63;;;16.70;;
73841;SDS011;62184;52.006;5.924;2022-12-07T00:46:49;48.80;;;16.53;;
73841;SDS011;62184;52.006;5.924;2022-12-07T00:49:18;48.07;;;16.33;;
73841;SDS011;62184;52.006;5.924;2022-12-07T00:51:44;45.65;;;16.60;;
73841;SDS011;62184;52.006;5.924;2022-12-07T00:54:13;50.22;;;16.23;;
73841;SDS011;62184;52.006;5.924;2022-12-07T00:56:39;47.15;;;16.38;;
73841;SDS011;62184;52.006;5.924;2022-12-07T00:59:06;47.33;;;16.00;;
73841;SDS011;62184;52.006;5.924;2022-12-07T01:01:33;48.10;;;15.75;;
73841;SDS011;62184;52.006;5.924;2022-12-07T01:04:02;43.20;;;15.65;;
73841;SDS011;62184;52.006;5.924;2022-12-07T01:06:32;53.70;;;17.25;;
73841;SDS011;62184;52.006;5.924;2022-12-07T01:08:58;54.47;;;18.53;;
73841;SDS011;62184;52.006;5.924;2022-12-07T01:11:26;51.10;;;18.00;;
73841;SDS011;62184;52.006;5.924;2022-12-07T01:13:55;52.97;;;17.75;;
73841;SDS011;62184;52.006;5.924;2022-12-07T01:16:26;50.00;;;17.75;;
73841;SDS011;62184;52.006;5.924;2022-12-07T01:18:55;50.07;;;17.13;;
73841;SDS011;62184;52.006;5.924;2022-12-07T01:21:24;51.55;;;17.52;;
73841;SDS011;62184;52.006;5.924;2022-12-07T01:23:56;55.40;;;17.97;;
73841;SDS011;62184;52.006;5.924;2022-12-07T01:26:24;53.33;;;17.00;;
73841;SDS011;62184;52.006;5.924;2022-12-07T01:28:51;56.15;;;19.35;;
73841;SDS011;62184;52.006;5.924;2022-12-07T01:31:19;58.10;;;18.67;;
73841;SDS011;62184;52.006;5.924;2022-12-07T01:33:49;55.40;;;18.92;;
73841;SDS011;62184;52.006;5.924;2022-12-07T01:36:19;54.88;;;18.15;;
73841;SDS011;62184;52.006;5.924;2022-12-07T01:38:48;60.80;;;20.20;;
73841;SDS011;62184;52.006;5.924;2022-12-07T01:41:20;58.23;;;20.03;;
73841;SDS011;62184;52.006;5.924;2022-12-07T01:46:48;50.25;;;17.85;;
73841;SDS011;62184;52.006;5.924;2022-12-07T01:49:21;51.95;;;17.58;;
73841;SDS011;62184;52.006;5.924;2022-12-07T01:51:56;53.72;;;17.88;;
73841;SDS011;62184;52.006;5.924;2022-12-07T01:54:33;54.43;;;17.70;;
73841;SDS011;62184;52.006;5.924;2022-12-07T01:57:03;52.10;;;18.05;;
73841;SDS011;62184;52.006;5.924;2022-12-07T01:59:34;52.80;;;16.90;;
73841;SDS011;62184;52.006;5.924;2022-12-07T02:02:02;52.70;;;17.05;;
73841;SDS011;62184;52.006;5.924;2022-12-07T02:04:36;53.67;;;17.10;;
73841;SDS011;62184;52.006;5.924;2022-12-07T02:07:02;60.90;;;17.93;;
73841;SDS011;62184;52.006;5.924;2022-12-07T02:09:30;53.42;;;16.75;;
73841;SDS011;62184;52.006;5.924;2022-12-07T02:11:57;54.70;;;16.70;;
73841;SDS011;62184;52.006;5.924;2022-12-07T02:14:26;51.10;;;16.50;;
73841;SDS011;62184;52.006;5.924;2022-12-07T02:16:57;48.20;;;16.52;;
73841;SDS011;62184;52.006;5.924;2022-12-07T02:22:52;52.95;;;17.42;;
73841;SDS011;62184;52.006;5.924;2022-12-07T02:25:47;52.83;;;17.42;;
73841;SDS011;62184;52.006;5.924;2022-12-07T02:28:33;55.33;;;17.88;;
73841;SDS011;62184;52.006;5.924;2022-12-07T02:31:08;54.90;;;18.23;;
73841;SDS011;62184;52.006;5.924;2022-12-07T02:33:44;50.63;;;17.13;;
73841;SDS011;62184;52.006;5.924;2022-12-07T02:36:20;47.88;;;16.10;;
73841;SDS011;62184;52.006;5.924;2022-12-07T02:38:55;54.97;;;16.77;;
73841;SDS011;62184;52.006;5.924;2022-12-07T02:41:29;52.35;;;16.75;;
73841;SDS011;62184;52.006;5.924;2022-12-07T02:44:02;49.63;;;16.40;;
73841;SDS011;62184;52.006;5.924;2022-12-07T02:46:39;51.88;;;16.80;;
73841;SDS011;62184;52.006;5.924;2022-12-07T02:49:12;54.80;;;16.58;;
73841;SDS011;62184;52.006;5.924;2022-12-07T02:52:02;49.78;;;15.65;;
73841;SDS011;62184;52.006;5.924;2022-12-07T02:54:29;49.42;;;15.60;;
73841;SDS011;62184;52.006;5.924;2022-12-07T02:56:57;50.53;;;16.10;;
73841;SDS011;62184;52.006;5.924;2022-12-07T02:59:42;44.47;;;14.73;;
73841;SDS011;62184;52.006;5.924;2022-12-07T03:02:29;46.50;;;15.00;;
73841;SDS011;62184;52.006;5.924;2022-12-07T03:05:11;51.55;;;15.90;;
73841;SDS011;62184;52.006;5.924;2022-12-07T03:08:01;50.05;;;16.20;;
73841;SDS011;62184;52.006;5.924;2022-12-07T03:10:39;46.15;;;14.98;;
73841;SDS011;62184;52.006;5.924;2022-12-07T03:13:20;48.10;;;15.25;;
73841;SDS011;62184;52.006;5.924;2022-12-07T03:15:55;46.53;;;14.85;;
73841;SDS011;62184;52.006;5.924;2022-12-07T03:18:34;41.10;;;14.35;;
73841;SDS011;62184;52.006;5.924;2022-12-07T03:21:09;39.87;;;13.77;;
73841;SDS011;62184;52.006;5.924;2022-12-07T03:23:42;42.45;;;14.15;;
73841;SDS011;62184;52.006;5.924;2022-12-07T03:26:16;41.20;;;13.80;;
73841;SDS011;62184;52.006;5.924;2022-12-07T03:28:48;38.17;;;13.10;;
73841;SDS011;62184;52.006;5.924;2022-12-07T03:31:21;36.00;;;12.57;;
73841;SDS011;62184;52.006;5.924;2022-12-07T03:33:59;37.63;;;12.50;;
73841;SDS011;62184;52.006;5.924;2022-12-07T03:36:35;34.17;;;12.18;;
73841;SDS011;62184;52.006;5.924;2022-12-07T03:39:13;34.90;;;11.87;;
73841;SDS011;62184;52.006;5.924;2022-12-07T03:41:50;34.28;;;11.73;;
73841;SDS011;62184;52.006;5.924;2022-12-07T03:44:20;36.65;;;11.75;;
73841;SDS011;62184;52.006;5.924;2022-12-07T03:46:50;36.92;;;10.68;;
73841;SDS011;62184;52.006;5.924;2022-12-07T03:49:31;32.42;;;10.63;;
73841;SDS011;62184;52.006;5.924;2022-12-07T03:52:08;32.08;;;10.75;;
73841;SDS011;62184;52.006;5.924;2022-12-07T03:54:49;31.63;;;10.05;;
73841;SDS011;62184;52.006;5.924;2022-12-07T03:57:25;31.42;;;10.23;;
73841;SDS011;62184;52.006;5.924;2022-12-07T03:59:56;32.50;;;10.50;;
73841;SDS011;62184;52.006;5.924;2022-12-07T04:02:23;30.23;;;9.70;;
73841;SDS011;62184;52.006;5.924;2022-12-07T04:04:56;29.65;;;9.82;;
73841;SDS011;62184;52.006;5.924;2022-12-07T04:07:23;23.53;;;9.10;;
73841;SDS011;62184;52.006;5.924;2022-12-07T04:09:49;27.67;;;9.00;;
73841;SDS011;62184;52.006;5.924;2022-12-07T04:12:16;28.45;;;9.10;;
73841;SDS011;62184;52.006;5.924;2022-12-07T04:14:42;25.63;;;8.70;;
73841;SDS011;62184;52.006;5.924;2022-12-07T04:17:09;29.55;;;9.00;;
73841;SDS011;62184;52.006;5.924;2022-12-07T04:19:35;26.92;;;8.50;;
73841;SDS011;62184;52.006;5.924;2022-12-07T04:22:04;24.52;;;8.45;;
73841;SDS011;62184;52.006;5.924;2022-12-07T04:24:32;24.08;;;8.38;;
73841;SDS011;62184;52.006;5.924;2022-12-07T04:27:00;24.10;;;7.70;;
73841;SDS011;62184;52.006;5.924;2022-12-07T04:29:27;24.93;;;8.17;;
73841;SDS011;62184;52.006;5.924;2022-12-07T04:31:53;32.15;;;8.73;;
73841;SDS011;62184;52.006;5.924;2022-12-07T04:34:20;26.98;;;9.48;;
73841;SDS011;62184;52.006;5.924;2022-12-07T04:36:47;30.45;;;8.90;;
73841;SDS011;62184;52.006;5.924;2022-12-07T04:39:20;26.50;;;8.30;;
73841;SDS011;62184;52.006;5.924;2022-12-07T04:41:49;31.40;;;9.50;;
73841;SDS011;62184;52.006;5.924;2022-12-07T04:44:16;30.45;;;9.35;;
73841;SDS011;62184;52.006;5.924;2022-12-07T04:46:44;28.83;;;9.20;;
73841;SDS011;62184;52.006;5.924;2022-12-07T04:49:11;29.45;;;9.15;;
73841;SDS011;62184;52.006;5.924;2022-12-07T04:51:39;25.83;;;8.93;;
73841;SDS011;62184;52.006;5.924;2022-12-07T04:54:07;23.88;;;8.00;;
73841;SDS011;62184;52.006;5.924;2022-12-07T04:56:37;24.87;;;7.60;;
73841;SDS011;62184;52.006;5.924;2022-12-07T04:59:03;24.07;;;7.40;;
73841;SDS011;62184;52.006;5.924;2022-12-07T05:01:31;20.02;;;6.60;;
73841;SDS011;62184;52.006;5.924;2022-12-07T05:03:58;20.65;;;6.68;;
73841;SDS011;62184;52.006;5.924;2022-12-07T05:06:25;24.38;;;7.05;;
73841;SDS011;62184;52.006;5.924;2022-12-07T05:08:52;21.75;;;6.68;;
73841;SDS011;62184;52.006;5.924;2022-12-07T05:11:18;21.08;;;6.75;;
73841;SDS011;62184;52.006;5.924;2022-12-07T05:13:47;21.67;;;6.18;;
73841;SDS011;62184;52.006;5.924;2022-12-07T05:16:14;20.67;;;6.40;;
73841;SDS011;62184;52.006;5.924;2022-12-07T05:18:40;22.75;;;6.40;;
73841;SDS011;62184;52.006;5.924;2022-12-07T05:21:06;22.73;;;6.38;;
73841;SDS011;62184;52.006;5.924;2022-12-07T05:23:33;22.83;;;6.70;;
73841;SDS011;62184;52.006;5.924;2022-12-07T05:25:59;21.00;;;6.30;;
73841;SDS011;62184;52.006;5.924;2022-12-07T05:28:26;21.65;;;6.00;;
73841;SDS011;62184;52.006;5.924;2022-12-07T05:30:55;21.90;;;6.40;;
73841;SDS011;62184;52.006;5.924;2022-12-07T05:33:21;20.33;;;6.03;;
73841;SDS011;62184;52.006;5.924;2022-12-07T05:35:47;21.10;;;6.15;;
73841;SDS011;62184;52.006;5.924;2022-12-07T05:38:14;22.60;;;6.10;;
73841;SDS011;62184;52.006;5.924;2022-12-07T05:40:40;22.65;;;6.70;;
73841;SDS011;62184;52.006;5.924;2022-12-07T05:43:07;25.88;;;7.10;;
73841;SDS011;62184;52.006;5.924;2022-12-07T05:45:34;24.27;;;7.20;;
73841;SDS011;62184;52.006;5.924;2022-12-07T05:48:03;21.65;;;6.45;;
73841;SDS011;62184;52.006;5.924;2022-12-07T05:50:30;24.08;;;6.55;;
73841;SDS011;62184;52.006;5.924;2022-12-07T05:52:56;22.48;;;6.40;;
73841;SDS011;62184;52.006;5.924;2022-12-07T05:55:23;23.58;;;6.00;;
73841;SDS011;62184;52.006;5.924;2022-12-07T05:57:49;22.55;;;5.90;;
73841;SDS011;62184;52.006;5.924;2022-12-07T06:00:16;23.48;;;6.07;;
73841;SDS011;62184;52.006;5.924;2022-12-07T06:02:43;20.45;;;5.90;;
73841;SDS011;62184;52.006;5.924;2022-12-07T06:05:12;20.50;;;5.97;;
73841;SDS011;62184;52.006;5.924;2022-12-07T06:07:38;21.02;;;5.68;;
73841;SDS011;62184;52.006;5.924;2022-12-07T06:10:05;21.98;;;6.25;;
73841;SDS011;62184;52.006;5.924;2022-12-07T06:12:33;19.70;;;5.85;;
73841;SDS011;62184;52.006;5.924;2022-12-07T06:15:00;21.10;;;6.13;;
73841;SDS011;62184;52.006;5.924;2022-12-07T06:17:27;19.63;;;6.03;;
73841;SDS011;62184;52.006;5.924;2022-12-07T06:19:53;19.88;;;6.50;;
73841;SDS011;62184;52.006;5.924;2022-12-07T06:22:22;23.00;;;6.07;;
73841;SDS011;62184;52.006;5.924;2022-12-07T06:24:49;19.42;;;5.88;;
73841;SDS011;62184;52.006;5.924;2022-12-07T06:27:15;19.85;;;6.00;;
73841;SDS011;62184;52.006;5.924;2022-12-07T06:29:42;19.40;;;5.70;;
73841;SDS011;62184;52.006;5.924;2022-12-07T06:32:08;18.55;;;5.78;;
73841;SDS011;62184;52.006;5.924;2022-12-07T06:34:35;23.75;;;6.00;;
73841;SDS011;62184;52.006;5.924;2022-12-07T06:37:01;17.70;;;4.97;;
73841;SDS011;62184;52.006;5.924;2022-12-07T06:39:30;20.08;;;5.10;;
73841;SDS011;62184;52.006;5.924;2022-12-07T06:41:57;18.63;;;4.80;;
73841;SDS011;62184;52.006;5.924;2022-12-07T06:44:24;19.87;;;5.20;;
73841;SDS011;62184;52.006;5.924;2022-12-07T06:46:51;17.65;;;5.07;;
73841;SDS011;62184;52.006;5.924;2022-12-07T06:49:18;17.17;;;4.85;;
73841;SDS011;62184;52.006;5.924;2022-12-07T06:51:44;16.38;;;4.72;;
73841;SDS011;62184;52.006;5.924;2022-12-07T06:54:11;20.88;;;5.00;;
73841;SDS011;62184;52.006;5.924;2022-12-07T06:56:42;20.55;;;5.53;;
73841;SDS011;62184;52.006;5.924;2022-12-07T06:59:09;21.58;;;5.65;;
73841;SDS011;62184;52.006;5.924;2022-12-07T07:01:36;18.70;;;5.38;;
73841;SDS011;62184;52.006;5.924;2022-12-07T07:04:03;16.08;;;5.20;;
73841;SDS011;62184;52.006;5.924;2022-12-07T07:06:30;18.10;;;4.83;;
73841;SDS011;62184;52.006;5.924;2022-12-07T07:08:56;19.10;;;4.93;;
73841;SDS011;62184;52.006;5.924;2022-12-07T07:11:23;18.90;;;4.55;;
73841;SDS011;62184;52.006;5.924;2022-12-07T07:13:52;19.05;;;5.07;;
73841;SDS011;62184;52.006;5.924;2022-12-07T07:16:18;14.90;;;4.57;;
73841;SDS011;62184;52.006;5.924;2022-12-07T07:18:45;16.95;;;4.47;;
73841;SDS011;62184;52.006;5.924;2022-12-07T07:21:11;16.17;;;4.65;;
73841;SDS011;62184;52.006;5.924;2022-12-07T07:23:37;20.75;;;5.20;;
73841;SDS011;62184;52.006;5.924;2022-12-07T07:26:04;18.27;;;4.60;;
73841;SDS011;62184;52.006;5.924;2022-12-07T07:28:30;17.05;;;4.38;;
73841;SDS011;62184;52.006;5.924;2022-12-07T07:30:59;17.15;;;4.82;;
73841;SDS011;62184;52.006;5.924;2022-12-07T07:33:26;18.25;;;4.72;;
73841;SDS011;62184;52.006;5.924;2022-12-07T07:35:52;17.58;;;4.82;;
73841;SDS011;62184;52.006;5.924;2022-12-07T07:38:18;19.20;;;5.00;;
73841;SDS011;62184;52.006;5.924;2022-12-07T07:40:45;19.27;;;4.88;;
73841;SDS011;62184;52.006;5.924;2022-12-07T07:43:11;20.35;;;5.40;;
73841;SDS011;62184;52.006;5.924;2022-12-07T07:45:38;18.45;;;5.40;;
73841;SDS011;62184;52.006;5.924;2022-12-07T07:48:07;20.23;;;5.10;;
73841;SDS011;62184;52.006;5.924;2022-12-07T07:50:33;18.30;;;4.75;;
73841;SDS011;62184;52.006;5.924;2022-12-07T07:53:00;19.25;;;5.05;;
73841;SDS011;62184;52.006;5.924;2022-12-07T07:55:26;19.10;;;5.00;;
73841;SDS011;62184;52.006;5.924;2022-12-07T07:57:53;19.27;;;5.32;;
73841;SDS011;62184;52.006;5.924;2022-12-07T08:00:20;18.95;;;5.40;;
73841;SDS011;62184;52.006;5.924;2022-12-07T08:02:48;19.77;;;5.03;;
73841;SDS011;62184;52.006;5.924;2022-12-07T08:05:17;19.15;;;4.82;;
73841;SDS011;62184;52.006;5.924;2022-12-07T08:07:43;20.63;;;5.27;;
73841;SDS011;62184;52.006;5.924;2022-12-07T08:10:10;19.92;;;5.20;;
73841;SDS011;62184;52.006;5.924;2022-12-07T08:12:39;20.48;;;5.72;;
73841;SDS011;62184;52.006;5.924;2022-12-07T08:15:07;20.33;;;5.72;;
73841;SDS011;62184;52.006;5.924;2022-12-07T08:17:35;16.17;;;5.40;;
73841;SDS011;62184;52.006;5.924;2022-12-07T08:20:02;18.57;;;5.37;;
73841;SDS011;62184;52.006;5.924;2022-12-07T08:22:32;21.92;;;5.65;;
73841;SDS011;62184;52.006;5.924;2022-12-07T08:24:58;18.57;;;4.90;;
73841;SDS011;62184;52.006;5.924;2022-12-07T08:27:25;17.93;;;5.00;;
73841;SDS011;62184;52.006;5.924;2022-12-07T08:29:51;16.60;;;5.20;;
73841;SDS011;62184;52.006;5.924;2022-12-07T08:32:18;17.60;;;5.40;;
73841;SDS011;62184;52.006;5.924;2022-12-07T08:34:44;17.60;;;5.03;;
73841;SDS011;62184;52.006;5.924;2022-12-07T08:37:10;19.63;;;5.10;;
73841;SDS011;62184;52.006;5.924;2022-12-07T08:39:39;16.38;;;5.13;;
73841;SDS011;62184;52.006;5.924;2022-12-07T08:42:06;15.73;;;5.22;;
73841;SDS011;62184;52.006;5.924;2022-12-07T08:44:32;19.30;;;4.93;;
73841;SDS011;62184;52.006;5.924;2022-12-07T08:47:00;16.13;;;4.90;;
73841;SDS011;62184;52.006;5.924;2022-12-07T08:49:31;14.25;;;4.45;;
73841;SDS011;62184;52.006;5.924;2022-12-07T08:52:05;16.15;;;4.43;;
73841;SDS011;62184;52.006;5.924;2022-12-07T08:54:31;16.50;;;4.30;;
73841;SDS011;62184;52.006;5.924;2022-12-07T08:57:05;12.93;;;4.20;;
73841;SDS011;62184;52.006;5.924;2022-12-07T08:59:34;17.77;;;4.00;;
73841;SDS011;62184;52.006;5.924;2022-12-07T09:02:02;13.48;;;4.10;;
73841;SDS011;62184;52.006;5.924;2022-12-07T09:04:29;16.02;;;4.65;;
73841;SDS011;62184;52.006;5.924;2022-12-07T09:06:56;17.48;;;4.30;;
73841;SDS011;62184;52.006;5.924;2022-12-07T09:09:22;17.17;;;5.05;;
73841;SDS011;62184;52.006;5.924;2022-12-07T09:11:48;15.93;;;4.80;;
73841;SDS011;62184;52.006;5.924;2022-12-07T09:14:17;14.18;;;3.97;;
73841;SDS011;62184;52.006;5.924;2022-12-07T09:16:44;14.15;;;4.43;;
73841;SDS011;62184;52.006;5.924;2022-12-07T09:19:10;17.05;;;4.68;;
73841;SDS011;62184;52.006;5.924;2022-12-07T09:21:37;16.45;;;4.93;;
73841;SDS011;62184;52.006;5.924;2022-12-07T09:24:04;15.07;;;4.85;;
73841;SDS011;62184;52.006;5.924;2022-12-07T09:26:31;15.85;;;4.50;;
73841;SDS011;62184;52.006;5.924;2022-12-07T09:28:58;12.15;;;4.40;;
73841;SDS011;62184;52.006;5.924;2022-12-07T09:31:27;13.27;;;4.63;;
73841;SDS011;62184;52.006;5.924;2022-12-07T09:33:53;15.20;;;5.00;;
73841;SDS011;62184;52.006;5.924;2022-12-07T09:36:20;13.60;;;4.65;;
73841;SDS011;62184;52.006;5.924;2022-12-07T09:38:47;14.93;;;4.75;;
73841;SDS011;62184;52.006;5.924;2022-12-07T09:41:13;12.93;;;4.32;;
73841;SDS011;62184;52.006;5.924;2022-12-07T09:43:40;16.35;;;4.20;;
73841;SDS011;62184;52.006;5.924;2022-12-07T09:46:08;12.77;;;4.35;;
73841;SDS011;62184;52.006;5.924;2022-12-07T09:48:45;14.65;;;4.63;;
73841;SDS011;62184;52.006;5.924;2022-12-07T09:51:17;15.85;;;5.10;;
73841;SDS011;62184;52.006;5.924;2022-12-07T09:53:46;14.10;;;4.97;;
73841;SDS011;62184;52.006;5.924;2022-12-07T09:56:14;14.20;;;4.37;;
73841;SDS011;62184;52.006;5.924;2022-12-07T09:58:44;12.93;;;4.20;;
73841;SDS011;62184;52.006;5.924;2022-12-07T10:01:12;12.95;;;4.43;;
73841;SDS011;62184;52.006;5.924;2022-12-07T10:03:50;11.93;;;4.30;;
73841;SDS011;62184;52.006;5.924;2022-12-07T10:06:21;13.30;;;4.38;;
73841;SDS011;62184;52.006;5.924;2022-12-07T10:08:49;16.33;;;4.30;;
73841;SDS011;62184;52.006;5.924;2022-12-07T10:11:15;13.48;;;4.10;;
73841;SDS011;62184;52.006;5.924;2022-12-07T10:13:43;14.50;;;4.05;;
73841;SDS011;62184;52.006;5.924;2022-12-07T10:16:26;12.18;;;4.03;;
73841;SDS011;62184;52.006;5.924;2022-12-07T10:22:01;10.63;;;4.00;;
73841;SDS011;62184;52.006;5.924;2022-12-07T10:24:34;12.35;;;4.07;;
73841;SDS011;62184;52.006;5.924;2022-12-07T10:27:01;11.27;;;4.10;;
73841;SDS011;62184;52.006;5.924;2022-12-07T10:29:28;12.05;;;4.03;;
73841;SDS011;62184;52.006;5.924;2022-12-07T10:31:59;11.33;;;4.03;;
73841;SDS011;62184;52.006;5.924;2022-12-07T10:34:32;11.43;;;4.10;;
73841;SDS011;62184;52.006;5.924;2022-12-07T10:37:13;12.00;;;3.83;;
73841;SDS011;62184;52.006;5.924;2022-12-07T10:39:43;9.90;;;3.55;;
73841;SDS011;62184;52.006;5.924;2022-12-07T10:42:16;10.52;;;3.72;;
73841;SDS011;62184;52.006;5.924;2022-12-07T10:44:45;11.67;;;3.87;;
73841;SDS011;62184;52.006;5.924;2022-12-07T10:47:25;10.70;;;4.00;;
73841;SDS011;62184;52.006;5.924;2022-12-07T10:50:08;10.63;;;4.00;;
73841;SDS011;62184;52.006;5.924;2022-12-07T10:52:58;9.65;;;3.58;;
73841;SDS011;62184;52.006;5.924;2022-12-07T10:55:56;9.88;;;3.50;;
73841;SDS011;62184;52.006;5.924;2022-12-07T10:58:44;13.02;;;4.03;;
73841;SDS011;62184;52.006;5.924;2022-12-07T11:01:29;9.33;;;3.73;;
73841;SDS011;62184;52.006;5.924;2022-12-07T11:04:18;9.68;;;3.65;;
73841;SDS011;62184;52.006;5.924;2022-12-07T11:07:02;10.73;;;3.45;;
73841;SDS011;62184;52.006;5.924;2022-12-07T11:09:55;9.93;;;3.55;;
73841;SDS011;62184;52.006;5.924;2022-12-07T11:12:34;9.63;;;3.30;;
73841;SDS011;62184;52.006;5.924;2022-12-07T11:15:18;8.85;;;3.50;;
73841;SDS011;62184;52.006;5.924;2022-12-07T11:17:56;10.55;;;3.50;;
73841;SDS011;62184;52.006;5.924;2022-12-07T11:20:37;9.38;;;3.55;;
73841;SDS011;62184;52.006;5.924;2022-12-07T11:23:16;9.77;;;3.60;;
73841;SDS011;62184;52.006;5.924;2022-12-07T11:26:01;12.40;;;3.85;;
73841;SDS011;62184;52.006;5.924;2022-12-07T11:28:50;11.45;;;3.90;;
73841;SDS011;62184;52.006;5.924;2022-12-07T11:31:50;10.13;;;3.53;;
73841;SDS011;62184;52.006;5.924;2022-12-07T11:34:37;11.03;;;3.87;;
73841;SDS011;62184;52.006;5.924;2022-12-07T11:37:15;11.25;;;3.60;;
73841;SDS011;62184;52.006;5.924;2022-12-07T11:39:50;10.85;;;3.33;;
73841;SDS011;62184;52.006;5.924;2022-12-07T11:42:21;8.90;;;3.42;;
73841;SDS011;62184;52.006;5.924;2022-12-07T11:44:53;9.17;;;3.07;;
73841;SDS011;62184;52.006;5.924;2022-12-07T11:47:29;9.17;;;3.30;;
73841;SDS011;62184;52.006;5.924;2022-12-07T11:50:09;10.93;;;3.22;;
73841;SDS011;62184;52.006;5.924;2022-12-07T11:52:53;8.47;;;2.80;;
73841;SDS011;62184;52.006;5.924;2022-12-07T11:55:29;11.43;;;3.30;;
73841;SDS011;62184;52.006;5.924;2022-12-07T11:58:11;8.07;;;2.88;;
73841;SDS011;62184;52.006;5.924;2022-12-07T12:01:13;8.77;;;2.72;;
73841;SDS011;62184;52.006;5.924;2022-12-07T12:03:55;9.00;;;2.80;;
73841;SDS011;62184;52.006;5.924;2022-12-07T12:06:32;10.35;;;2.65;;
73841;SDS011;62184;52.006;5.924;2022-12-07T12:08:59;9.80;;;2.70;;
73841;SDS011;62184;52.006;5.924;2022-12-07T12:11:43;9.38;;;2.63;;
73841;SDS011;62184;52.006;5.924;2022-12-07T12:14:42;8.27;;;2.47;;
73841;SDS011;62184;52.006;5.924;2022-12-07T12:17:36;8.80;;;2.53;;
73841;SDS011;62184;52.006;5.924;2022-12-07T12:20:29;9.17;;;2.70;;
73841;SDS011;62184;52.006;5.924;2022-12-07T12:23:06;10.37;;;2.70;;
73841;SDS011;62184;52.006;5.924;2022-12-07T12:25:41;10.77;;;2.55;;
73841;SDS011;62184;52.006;5.924;2022-12-07T12:28:21;8.00;;;2.53;;
73841;SDS011;62184;52.006;5.924;2022-12-07T12:31:04;8.50;;;2.70;;
73841;SDS011;62184;52.006;5.924;2022-12-07T12:33:35;7.45;;;2.53;;
73841;SDS011;62184;52.006;5.924;2022-12-07T12:36:17;9.40;;;2.60;;
73841;SDS011;62184;52.006;5.924;2022-12-07T12:38:48;8.50;;;2.45;;
73841;SDS011;62184;52.006;5.924;2022-12-07T12:50:47;8.15;;;2.22;;
73841;SDS011;62184;52.006;5.924;2022-12-07T12:53:19;9.55;;;2.38;;
73841;SDS011;62184;52.006;5.924;2022-12-07T12:59:19;8.60;;;2.25;;
73841;SDS011;62184;52.006;5.924;2022-12-07T13:01:54;9.90;;;2.47;;
73841;SDS011;62184;52.006;5.924;2022-12-07T13:04:49;7.43;;;2.70;;
73841;SDS011;62184;52.006;5.924;2022-12-07T13:13:28;8.32;;;2.40;;
73841;SDS011;62184;52.006;5.924;2022-12-07T13:25:29;9.75;;;2.45;;
73841;SDS011;62184;52.006;5.924;2022-12-07T13:28:07;9.27;;;2.50;;
73841;SDS011;62184;52.006;5.924;2022-12-07T13:30:54;7.70;;;2.50;;
73841;SDS011;62184;52.006;5.924;2022-12-07T13:33:35;8.57;;;2.38;;
73841;SDS011;62184;52.006;5.924;2022-12-07T13:36:01;9.33;;;2.30;;
73841;SDS011;62184;52.006;5.924;2022-12-07T13:38:32;8.63;;;2.30;;
73841;SDS011;62184;52.006;5.924;2022-12-07T13:41:01;8.13;;;2.22;;
73841;SDS011;62184;52.006;5.924;2022-12-07T13:43:31;8.90;;;2.80;;
73841;SDS011;62184;52.006;5.924;2022-12-07T13:46:07;7.80;;;2.40;;
73841;SDS011;62184;52.006;5.924;2022-12-07T13:48:41;8.35;;;2.33;;
73841;SDS011;62184;52.006;5.924;2022-12-07T13:51:16;8.13;;;2.50;;
73841;SDS011;62184;52.006;5.924;2022-12-07T13:53:49;9.57;;;2.72;;
73841;SDS011;62184;52.006;5.924;2022-12-07T13:56:18;8.25;;;2.60;;
73841;SDS011;62184;52.006;5.924;2022-12-07T13:58:52;8.80;;;2.47;;
73841;SDS011;62184;52.006;5.924;2022-12-07T14:01:18;7.80;;;2.40;;
73841;SDS011;62184;52.006;5.924;2022-12-07T14:03:45;8.75;;;2.45;;
73841;SDS011;62184;52.006;5.924;2022-12-07T14:06:14;9.30;;;2.28;;
73841;SDS011;62184;52.006;5.924;2022-12-07T14:11:44;6.07;;;1.67;;
73841;SDS011;62184;52.006;5.924;2022-12-07T14:14:11;6.00;;;1.50;;
73841;SDS011;62184;52.006;5.924;2022-12-07T14:16:43;6.15;;;1.70;;
73841;SDS011;62184;52.006;5.924;2022-12-07T14:22:25;8.10;;;1.70;;
73841;SDS011;62184;52.006;5.924;2022-12-07T14:25:01;9.50;;;1.58;;
73841;SDS011;62184;52.006;5.924;2022-12-07T14:27:50;8.80;;;1.98;;
73841;SDS011;62184;52.006;5.924;2022-12-07T14:30:23;7.50;;;1.80;;
73841;SDS011;62184;52.006;5.924;2022-12-07T14:32:53;8.00;;;2.08;;
73841;SDS011;62184;52.006;5.924;2022-12-07T14:35:24;9.48;;;2.25;;
73841;SDS011;62184;52.006;5.924;2022-12-07T14:37:51;8.48;;;2.30;;
73841;SDS011;62184;52.006;5.924;2022-12-07T14:40:21;10.20;;;2.20;;
73841;SDS011;62184;52.006;5.924;2022-12-07T14:42:50;9.23;;;2.22;;
73841;SDS011;62184;52.006;5.924;2022-12-07T14:45:22;8.50;;;2.13;;
73841;SDS011;62184;52.006;5.924;2022-12-07T14:47:49;8.98;;;2.45;;
73841;SDS011;62184;52.006;5.924;2022-12-07T14:50:16;8.63;;;2.67;;
73841;SDS011;62184;52.006;5.924;2022-12-07T14:52:46;9.20;;;2.47;;
73841;SDS011;62184;52.006;5.924;2022-12-07T14:55:22;10.02;;;2.67;;
73841;SDS011;62184;52.006;5.924;2022-12-07T14:57:51;8.05;;;2.20;;
73841;SDS011;62184;52.006;5.924;2022-12-07T15:00:18;7.82;;;2.63;;
73841;SDS011;62184;52.006;5.924;2022-12-07T15:02:48;8.00;;;2.53;;
73841;SDS011;62184;52.006;5.924;2022-12-07T15:05:16;7.35;;;2.30;;
73841;SDS011;62184;52.006;5.924;2022-12-07T15:07:44;10.52;;;2.70;;
73841;SDS011;62184;52.006;5.924;2022-12-07T15:10:13;9.17;;;2.77;;
73841;SDS011;62184;52.006;5.924;2022-12-07T15:12:47;11.82;;;3.22;;
73841;SDS011;62184;52.006;5.924;2022-12-07T15:15:13;8.97;;;3.20;;
73841;SDS011;62184;52.006;5.924;2022-12-07T15:17:40;8.55;;;2.97;;
73841;SDS011;62184;52.006;5.924;2022-12-07T15:20:08;9.07;;;3.13;;
73841;SDS011;62184;52.006;5.924;2022-12-07T15:22:39;10.00;;;2.72;;
73841;SDS011;62184;52.006;5.924;2022-12-07T15:25:06;8.23;;;2.77;;
73841;SDS011;62184;52.006;5.924;2022-12-07T15:27:34;9.13;;;2.97;;
73841;SDS011;62184;52.006;5.924;2022-12-07T15:30:04;8.00;;;2.80;;
73841;SDS011;62184;52.006;5.924;2022-12-07T15:32:32;9.83;;;2.97;;
73841;SDS011;62184;52.006;5.924;2022-12-07T15:34:58;8.57;;;3.20;;
73841;SDS011;62184;52.006;5.924;2022-12-07T15:37:25;9.47;;;3.17;;
73841;SDS011;62184;52.006;5.924;2022-12-07T15:39:51;10.30;;;3.70;;